.
WxDataArchive / Data Records for 2014-12-01
2014-11-30 December 2014 2014-12-02

Data Records for Monday, 01 December 2014

Time	Temp	Chill	HIndex	Humid	Dewpt	 Wind 	HiWind	WindDir	Rain 	Barom
-----	----	-----	------	-----	-----	------	------	-------	-----	-----
00:00	40.1	40.1	40.1	86	36.3	0	3	292	0.00	30.117 
00:05	39.9	39.9	39.9	86	36.1	1	4	292	0.00	30.117 
00:10	39.9	39.9	39.9	86	36.1	1	3	292	0.00	30.117 
00:15	39.9	39.9	39.9	86	36.1	0	2	292	0.00	30.127 
00:20	39.9	39.9	39.9	85	35.8	2	4	315	0.00	30.127 
00:25	39.8	39.8	39.8	85	35.7	1	2	315	0.00	30.127 
00:30	39.8	39.8	39.8	85	35.7	1	3	292	0.00	30.132 
00:35	39.6	39.6	39.6	85	35.5	2	6	292	0.00	30.132 
00:40	39.6	39.6	39.6	84	35.2	0	3	292	0.00	30.132 
00:45	39.5	39.5	39.5	83	34.8	2	4	292	0.00	30.136 
00:50	39.5	39.5	39.5	82	34.5	2	6	315	0.00	30.136 
00:55	39.3	39.3	39.3	81	34.0	1	4	315	0.00	30.136 
01:00	39.2	39.2	39.2	81	33.9	1	4	292	0.00	30.137 
01:05	39.1	39.1	39.1	81	33.8	1	4	270	0.00	30.137 
01:10	38.9	38.9	38.9	81	33.6	1	4	292	0.00	30.137 
01:15	38.9	38.9	38.9	81	33.6	1	6	338	0.00	30.139 
01:20	38.8	38.8	38.8	81	33.5	1	4	338	0.00	30.139 
01:25	38.8	38.8	38.8	81	33.5	1	3	338	0.00	30.139 
01:30	38.6	38.6	38.6	81	33.3	1	3	270	0.00	30.149 
01:35	38.6	38.6	38.6	82	33.6	0	3	270	0.00	30.149 
01:40	38.6	38.6	38.6	82	33.6	0	3	270	0.00	30.149 
01:45	38.5	38.5	38.5	82	33.5	1	4	292	0.00	30.163 
01:50	38.5	38.5	38.5	82	33.5	1	4	338	0.00	30.163 
01:55	38.5	38.5	38.5	81	33.2	2	5	338	0.00	30.163 
02:00	38.5	38.5	38.5	81	33.2	2	5	315	0.00	30.170 
02:05	38.3	38.3	38.3	81	33.0	2	6	270	0.00	30.170 
02:10	38.2	38.2	38.2	80	32.6	2	4	292	0.00	30.170 
02:15	38.0	38.0	38.0	79	32.1	1	5	292	0.00	30.181 
02:20	37.9	37.9	37.9	78	31.7	2	7	0	0.00	30.181 
02:25	37.8	37.8	37.8	78	31.6	2	5	292	0.00	30.181 
02:30	37.6	37.6	37.6	78	31.4	3	7	292	0.00	30.193 
02:35	37.5	37.5	37.5	77	31.0	2	7	315	0.00	30.193 
02:40	37.3	37.3	37.3	77	30.8	2	5	338	0.00	30.193 
02:45	37.2	37.2	37.2	77	30.7	2	7	0	0.00	30.200 
02:50	37.0	37.0	37.0	77	30.5	2	6	338	0.00	30.200 
02:55	36.9	36.9	36.9	77	30.4	1	5	292	0.00	30.200 
03:00	36.9	36.9	36.9	77	30.4	1	5	315	0.00	30.207 
03:05	36.8	36.8	36.8	77	30.3	2	9	338	0.00	30.207 
03:10	36.6	36.6	36.6	77	30.1	2	4	338	0.00	30.207 
03:15	36.3	36.3	36.3	76	29.5	2	4	270	0.00	30.212 
03:20	36.2	36.2	36.2	76	29.4	2	5	292	0.00	30.212 
03:25	36.2	36.2	36.2	77	29.7	1	5	338	0.00	30.212 
03:30	36.0	36.0	36.0	77	29.5	1	5	292	0.00	30.218 
03:35	35.9	35.9	35.9	76	29.1	3	10	292	0.00	30.218 
03:40	35.6	35.6	35.6	76	28.8	2	7	315	0.00	30.218 
03:45	35.5	35.5	35.5	76	28.7	2	9	270	0.00	30.229 
03:50	35.3	35.3	35.3	76	28.5	1	4	270	0.00	30.229 
03:55	35.2	35.2	35.2	76	28.4	1	4	292	0.00	30.229 
04:00	35.2	35.2	35.2	76	28.4	2	9	338	0.00	30.235 
04:05	35.0	35.0	35.0	77	28.5	3	6	270	0.00	30.235 
04:10	34.7	34.7	34.7	75	27.6	2	6	315	0.00	30.235 
04:15	34.3	34.3	34.3	75	27.2	2	6	338	0.00	30.249 
04:20	34.0	34.0	34.0	74	26.6	2	5	315	0.00	30.249 
04:25	33.8	33.8	33.8	74	26.4	2	6	315	0.00	30.249 
04:30	33.7	33.7	33.7	73	26.0	1	4	338	0.00	30.258 
04:35	33.5	33.5	33.5	73	25.8	2	5	338	0.00	30.258 
04:40	33.5	33.5	33.5	73	25.8	1	5	338	0.00	30.258 
04:45	33.4	33.4	33.4	73	25.7	2	9	338	0.00	30.265 
04:50	33.4	33.4	33.4	73	25.7	1	5	315	0.00	30.265 
04:55	33.4	33.4	33.4	73	25.7	1	7	315	0.00	30.265 
05:00	33.4	33.4	33.4	73	25.7	1	4	315	0.00	30.271 
05:05	33.2	33.2	33.2	73	25.5	1	3	90	0.00	30.271 
05:10	33.2	33.2	33.2	73	25.5	2	4	0	0.00	30.271 
05:15	33.2	33.2	33.2	73	25.5	1	3	0	0.00	30.282 
05:20	33.2	33.2	33.2	74	25.8	1	3	0	0.00	30.282 
05:25	33.2	33.2	33.2	74	25.8	1	2	0	0.00	30.282 
05:30	33.2	33.2	33.2	74	25.8	0	1	0	0.00	30.296 
05:35	33.2	33.2	33.2	74	25.8	0	3	0	0.00	30.296 
05:40	33.2	33.2	33.2	74	25.8	1	3	0	0.00	30.296 
05:45	33.2	33.2	33.2	75	26.2	0	3	0	0.00	30.310 
05:50	33.1	33.1	33.1	74	25.7	1	4	292	0.00	30.310 
05:55	32.9	32.9	32.9	73	25.2	2	5	292	0.00	30.310 
06:00	32.9	32.9	32.9	73	25.2	2	6	315	0.00	30.317 
06:05	32.8	32.8	32.8	73	25.1	1	5	338	0.00	30.317 
06:10	32.8	32.8	32.8	73	25.1	1	7	292	0.00	30.317 
06:15	32.7	32.7	32.7	72	24.7	1	4	292	0.00	30.336 
06:20	32.7	32.7	32.7	73	25.0	1	4	315	0.00	30.336 
06:25	32.5	32.5	32.5	71	24.2	2	6	338	0.00	30.336 
06:30	32.4	32.4	32.4	71	24.1	1	5	315	0.00	30.344 
06:35	32.4	32.4	32.4	70	23.7	2	5	338	0.00	30.344 
06:40	32.2	32.2	32.2	70	23.5	2	6	292	0.00	30.344 
06:45	32.1	32.1	32.1	70	23.4	1	4	270	0.00	30.361 
06:50	32.1	32.1	32.1	70	23.4	1	3	0	0.00	30.361 
06:55	31.9	31.9	31.9	70	23.2	1	4	315	0.00	30.361 
07:00	31.9	31.9	31.9	70	23.2	1	3	338	0.00	30.378 
07:05	31.8	31.8	31.8	69	22.8	2	6	292	0.00	30.378 
07:10	31.8	31.8	31.8	69	22.8	1	4	315	0.00	30.378 
07:15	31.6	31.6	31.6	68	22.3	1	6	0	0.00	30.396 
07:20	31.5	31.5	31.5	69	22.5	1	4	292	0.00	30.396 
07:25	31.5	31.5	31.5	68	22.2	1	4	292	0.00	30.396 
07:30	31.3	31.3	31.3	68	22.0	2	7	315	0.00	30.406 
07:35	31.2	31.2	31.2	68	21.9	1	4	338	0.00	30.406 
07:40	31.0	31.0	31.0	67	21.3	2	6	292	0.00	30.406 
07:45	31.0	31.0	31.0	68	21.7	1	5	270	0.00	30.420 
07:50	30.7	30.7	30.7	67	21.1	2	5	292	0.00	30.420 
07:55	30.6	30.6	30.6	67	21.0	1	4	292	0.00	30.420 
08:00	30.4	30.4	30.4	67	20.8	2	5	338	0.00	30.432 
08:05	30.3	30.3	30.3	68	21.0	1	4	315	0.00	30.432 
08:10	30.3	30.3	30.3	67	20.7	1	4	270	0.00	30.432 
08:15	30.1	30.1	30.1	68	20.8	1	3	315	0.00	30.434 
08:20	30.1	30.1	30.1	67	20.5	1	4	292	0.00	30.434 
08:25	30.1	30.1	30.1	67	20.5	1	4	270	0.00	30.434 
08:30	30.1	30.1	30.1	67	20.5	1	5	270	0.00	30.443 
08:35	30.0	30.0	30.0	66	20.0	2	5	315	0.00	30.443 
08:40	30.0	30.0	30.0	67	20.4	0	3	292	0.00	30.443 
08:45	30.0	30.0	30.0	67	20.4	1	5	292	0.00	30.454 
08:50	29.8	29.8	29.8	67	20.2	1	3	292	0.00	30.454 
08:55	29.8	29.8	29.8	67	20.2	1	4	338	0.00	30.454 
09:00	29.8	29.8	29.8	67	20.2	1	4	338	0.00	30.458 
09:05	29.8	29.8	29.8	67	20.2	1	3	315	0.00	30.458 
09:10	29.8	29.8	29.8	67	20.2	1	3	315	0.00	30.458 
09:15	30.0	30.0	30.0	68	20.7	1	3	315	0.00	30.460 
09:20	30.3	30.3	30.3	68	21.0	0	2	292	0.00	30.460 
09:25	30.6	30.6	30.6	67	21.0	1	3	0	0.00	30.460 
09:30	30.7	30.7	30.7	66	20.7	1	5	22	0.00	30.466 
09:35	30.9	30.9	30.9	65	20.5	1	4	292	0.00	30.466 
09:40	30.9	30.9	30.9	64	20.2	1	4	338	0.00	30.466 
09:45	30.7	30.7	30.7	62	19.2	3	6	338	0.00	30.475 
09:50	30.6	30.6	30.6	63	19.5	2	5	338	0.00	30.475 
09:55	30.6	30.6	30.6	62	19.2	2	6	338	0.00	30.475 
10:00	30.6	30.6	30.6	62	19.2	3	5	338	0.00	30.488 
10:05	30.6	30.6	30.6	62	19.2	2	6	292	0.00	30.488 
10:10	30.6	30.6	30.6	62	19.2	2	5	315	0.00	30.488 
10:15	30.6	30.6	30.6	62	19.2	2	6	338	0.00	30.491 
10:20	30.6	30.6	30.6	62	19.2	2	6	292	0.00	30.491 
10:25	30.6	30.6	30.6	62	19.2	2	10	292	0.00	30.491 
10:30	30.7	30.7	30.7	62	19.2	1	3	0	0.00	30.500 
10:35	30.7	30.7	30.7	62	19.2	2	6	0	0.00	30.500 
10:40	30.9	30.9	30.9	62	19.4	1	3	315	0.00	30.500 
10:45	30.9	30.9	30.9	61	19.1	2	5	292	0.00	30.507 
10:50	30.7	30.7	30.7	61	18.9	1	5	315	0.00	30.507 
10:55	30.7	30.7	30.7	61	18.9	2	6	0	0.00	30.507 
11:00	30.7	30.7	30.7	61	18.9	1	4	292	0.00	30.515 
11:05	30.6	30.6	30.6	60	18.4	1	4	315	0.00	30.515 
11:10	30.4	30.4	30.4	59	17.8	2	6	315	0.00	30.515 
11:15	30.4	30.4	30.4	58	17.4	1	7	338	0.00	30.520 
11:20	30.9	30.9	30.9	58	17.9	1	4	315	0.00	30.520 
11:25	31.2	31.2	31.2	58	18.2	1	5	315	0.00	30.520 
11:30	31.3	31.3	31.3	58	18.3	1	4	338	0.00	30.519 
11:35	31.0	31.0	31.0	55	16.8	1	5	338	0.00	30.519 
11:40	30.7	30.7	30.7	57	17.3	1	5	338	0.00	30.519 
11:45	31.0	31.0	31.0	58	18.0	0	2	292	0.00	30.521 
11:50	30.9	30.9	30.9	57	17.5	2	6	292	0.00	30.521 
11:55	30.6	30.6	30.6	56	16.8	2	6	270	0.00	30.521 
12:00	30.4	30.4	30.4	55	16.2	2	6	270	0.00	30.516 
12:05	30.3	30.3	30.3	55	16.1	1	4	0	0.00	30.516 
12:10	30.1	30.1	30.1	54	15.5	2	6	292	0.00	30.516 
12:15	30.1	30.1	30.1	54	15.5	2	6	338	0.00	30.514 
12:20	30.0	30.0	30.0	52	14.5	2	5	338	0.00	30.514 
12:25	29.8	29.8	29.8	53	14.8	1	5	292	0.00	30.514 
12:30	29.8	29.8	29.8	52	14.3	1	5	338	0.00	30.509 
12:35	30.1	30.1	30.1	53	15.1	1	4	0	0.00	30.509 
12:40	30.3	30.3	30.3	53	15.2	1	3	0	0.00	30.509 
12:45	30.4	30.4	30.4	53	15.3	1	3	248	0.00	30.508 
12:50	30.4	30.4	30.4	54	15.8	1	5	248	0.00	30.508 
12:55	30.3	30.3	30.3	53	15.2	1	5	270	0.00	30.508 
13:00	30.3	30.3	30.3	54	15.7	1	4	0	0.00	30.509 
13:05	30.3	30.3	30.3	54	15.7	1	4	292	0.00	30.509 
13:10	30.3	30.3	30.3	54	15.7	1	4	0	0.00	30.509 
13:15	30.1	30.1	30.1	52	14.6	2	5	315	0.00	30.516 
13:20	30.1	30.1	30.1	50	13.7	2	5	270	0.00	30.516 
13:25	30.0	30.0	30.0	48	12.7	2	5	292	0.00	30.516 
13:30	29.7	29.7	29.7	48	12.4	2	5	338	0.00	30.516 
13:35	29.8	29.8	29.8	50	13.5	1	6	338	0.00	30.516 
13:40	30.1	30.1	30.1	51	14.2	1	4	338	0.00	30.516 
13:45	30.4	30.4	30.4	50	14.0	1	5	338	0.00	30.516 
13:50	30.6	30.6	30.6	50	14.2	1	3	315	0.00	30.516 
13:55	30.4	30.4	30.4	49	13.6	1	4	338	0.00	30.516 
14:00	30.1	30.1	30.1	48	12.8	2	5	315	0.00	30.513 
14:05	30.1	30.1	30.1	49	13.3	1	5	338	0.00	30.513 
14:10	30.3	30.3	30.3	50	13.9	2	6	292	0.00	30.513 
14:15	30.7	30.7	30.7	51	14.7	1	5	315	0.00	30.515 
14:20	30.7	30.7	30.7	50	14.3	1	5	315	0.00	30.515 
14:25	30.6	30.6	30.6	50	14.2	2	6	338	0.00	30.515 
14:30	30.7	30.7	30.7	49	13.8	2	6	0	0.00	30.525 
14:35	30.9	30.9	30.9	50	14.5	1	4	292	0.00	30.525 
14:40	31.0	31.0	31.0	50	14.6	1	6	292	0.00	30.525 
14:45	30.9	30.9	30.9	49	14.0	2	7	0	0.00	30.524 
14:50	31.2	31.2	31.2	49	14.3	1	6	0	0.00	30.524 
14:55	31.2	31.2	31.2	49	14.3	1	4	0	0.00	30.524 
15:00	31.2	31.2	31.2	49	14.3	2	6	315	0.00	30.525 
15:05	30.9	30.9	30.9	49	14.0	2	6	270	0.00	30.525 
15:10	30.7	30.7	30.7	50	14.3	1	4	315	0.00	30.525 
15:15	30.6	30.6	30.6	49	13.7	1	3	315	0.00	30.531 
15:20	30.3	30.3	30.3	50	13.9	1	3	338	0.00	30.531 
15:25	30.3	30.3	30.3	50	13.9	2	6	338	0.00	30.531 
15:30	30.0	30.0	30.0	51	14.1	1	4	0	0.00	30.537 
15:35	29.7	29.7	29.7	51	13.8	1	4	338	0.00	30.537 
15:40	29.5	29.5	29.5	52	14.1	1	3	292	0.00	30.537 
15:45	29.5	29.5	29.5	54	14.9	1	4	0	0.00	30.544 
15:50	29.4	29.4	29.4	53	14.4	1	3	315	0.00	30.544 
15:55	29.4	29.4	29.4	51	13.5	1	4	338	0.00	30.544 
16:00	29.0	29.0	29.0	51	13.2	1	5	338	0.00	30.547 
16:05	28.8	28.8	28.8	52	13.4	1	5	315	0.00	30.547 
16:10	28.8	28.8	28.8	53	13.9	1	4	315	0.00	30.547 
16:15	28.7	28.7	28.7	53	13.8	1	5	338	0.00	30.550 
16:20	28.5	28.5	28.5	53	13.6	1	6	315	0.00	30.550 
16:25	28.5	28.5	28.5	54	14.0	1	4	338	0.00	30.550 
16:30	28.5	28.5	28.5	54	14.0	1	5	45	0.00	30.549 
16:35	28.5	28.5	28.5	54	14.0	0	2	338	0.00	30.549 
16:40	28.5	28.5	28.5	54	14.0	1	4	315	0.00	30.549 
16:45	28.5	28.5	28.5	54	14.0	0	3	315	0.00	30.555 
16:50	28.4	28.4	28.4	54	13.9	0	2	315	0.00	30.555 
16:55	28.4	28.4	28.4	52	13.0	1	3	315	0.00	30.555 
17:00	28.2	28.2	28.2	52	12.9	1	5	112	0.00	30.565 
17:05	28.2	28.2	28.2	52	12.9	1	4	0	0.00	30.565 
17:10	28.2	28.2	28.2	52	12.9	0	3	45	0.00	30.565 
17:15	28.1	28.1	28.1	52	12.8	0	4	45	0.00	30.575 
17:20	28.1	28.1	28.1	53	13.2	0	3	338	0.00	30.575 
17:25	28.1	28.1	28.1	53	13.2	0	4	338	0.00	30.575 
17:30	28.1	28.1	28.1	54	13.6	0	1	292	0.00	30.577 
17:35	27.9	27.9	27.9	54	13.4	0	4	292	0.00	30.577 
17:40	27.9	27.9	27.9	54	13.4	1	3	292	0.00	30.577 
17:45	27.9	27.9	27.9	54	13.4	0	3	292	0.00	30.581 
17:50	27.9	27.9	27.9	54	13.4	0	2	292	0.00	30.581 
17:55	27.8	27.8	27.8	54	13.3	0	2	292	0.00	30.581 
18:00	27.8	27.8	27.8	55	13.8	0	1	292	0.00	30.583 
18:05	27.6	27.6	27.6	55	13.6	0	2	292	0.00	30.583 
18:10	27.5	27.5	27.5	57	14.3	0	2	292	0.00	30.583 
18:15	27.3	27.3	27.3	56	13.7	0	4	112	0.00	30.592 
18:20	27.2	27.2	27.2	57	14.0	0	2	112	0.00	30.592 
18:25	27.2	27.2	27.2	57	14.0	0	3	22	0.00	30.592 
18:30	27.0	27.0	27.0	56	13.4	0	3	292	0.00	30.598 
18:35	26.9	26.9	26.9	57	13.7	0	2	292	0.00	30.598 
18:40	26.7	26.7	26.7	57	13.5	0	3	315	0.00	30.598 
18:45	26.7	26.7	26.7	58	13.9	0	3	315	0.00	30.594 
18:50	26.6	26.6	26.6	58	13.8	0	1	338	0.00	30.594 
18:55	26.6	26.6	26.6	58	13.8	0	3	338	0.00	30.594 
19:00	26.4	26.4	26.4	58	13.7	0	3	338	0.00	30.598 
19:05	26.4	26.4	26.4	58	13.7	0	1	338	0.00	30.598 
19:10	26.3	26.3	26.3	59	13.9	0	2	338	0.00	30.598 
19:15	26.1	26.1	26.1	59	13.8	0	3	338	0.00	30.600 
19:20	26.0	26.0	26.0	61	14.4	0	2	338	0.00	30.600 
19:25	25.8	25.8	25.8	61	14.2	0	2	338	0.00	30.600 
19:30	25.7	25.7	25.7	61	14.1	0	2	338	0.00	30.609 
19:35	25.7	25.7	25.7	62	14.5	0	1	338	0.00	30.609 
19:40	25.6	25.6	25.6	62	14.4	0	2	338	0.00	30.609 
19:45	25.6	25.6	25.6	62	14.4	0	1	338	0.00	30.614 
19:50	25.6	25.6	25.6	62	14.4	0	2	338	0.00	30.614 
19:55	25.6	25.6	25.6	62	14.4	0	1	338	0.00	30.614 
20:00	25.6	25.6	25.6	62	14.4	0	1	338	0.00	30.613 
20:05	25.6	25.6	25.6	62	14.4	0	1	338	0.00	30.613 
20:10	25.6	25.6	25.6	63	14.8	0	3	90	0.00	30.613 
20:15	25.6	25.6	25.6	63	14.8	0	1	90	0.00	30.611 
20:20	25.6	25.6	25.6	63	14.8	0	2	90	0.00	30.611 
20:25	25.6	25.6	25.6	63	14.8	0	1	90	0.00	30.611 
20:30	25.6	25.6	25.6	64	15.1	0	0	---	0.00	30.611 
20:35	25.4	25.4	25.4	64	14.9	0	2	90	0.00	30.611 
20:40	25.4	25.4	25.4	64	14.9	0	2	112	0.00	30.611 
20:45	25.4	25.4	25.4	64	14.9	0	1	112	0.00	30.613 
20:50	25.4	25.4	25.4	64	14.9	0	2	68	0.00	30.613 
20:55	25.4	25.4	25.4	64	14.9	0	2	68	0.00	30.613 
21:00	25.3	25.3	25.3	64	14.9	0	2	68	0.00	30.614 
21:05	25.3	25.3	25.3	63	14.5	0	1	68	0.00	30.614 
21:10	25.3	25.3	25.3	62	14.1	1	5	112	0.00	30.614 
21:15	25.1	25.1	25.1	59	12.8	1	4	112	0.00	30.609 
21:20	25.1	25.1	25.1	59	12.8	1	4	112	0.00	30.609 
21:25	25.1	25.1	25.1	58	12.4	1	4	135	0.00	30.609 
21:30	25.0	25.0	25.0	58	12.3	0	1	135	0.00	30.606 
21:35	25.0	25.0	25.0	58	12.3	0	3	135	0.00	30.606 
21:40	24.8	24.8	24.8	58	12.1	0	4	135	0.00	30.606 
21:45	24.8	24.8	24.8	58	12.1	1	3	135	0.00	30.608 
21:50	24.7	24.7	24.7	58	12.1	1	4	90	0.00	30.608 
21:55	24.5	24.5	24.5	58	11.9	0	1	90	0.00	30.608 
22:00	24.4	24.4	24.4	59	12.2	0	1	90	0.00	30.603 
22:05	24.2	24.2	24.2	59	12.0	0	1	68	0.00	30.603 
22:10	24.2	24.2	24.2	60	12.3	0	4	90	0.00	30.603 
22:15	24.1	24.1	24.1	61	12.6	0	2	22	0.00	30.602 
22:20	23.9	23.9	23.9	61	12.4	1	5	90	0.00	30.602 
22:25	23.9	23.9	23.9	61	12.4	1	3	90	0.00	30.602 
22:30	23.8	23.8	23.8	61	12.3	0	3	90	0.00	30.601 
22:35	23.6	23.6	23.6	62	12.5	0	4	90	0.00	30.601 
22:40	23.5	23.5	23.5	62	12.4	0	2	90	0.00	30.601 
22:45	23.5	23.5	23.5	63	12.8	1	6	90	0.00	30.598 
22:50	23.5	23.5	23.5	63	12.8	1	5	90	0.00	30.598 
22:55	23.3	23.3	23.3	63	12.6	0	3	0	0.00	30.598 
23:00	23.2	23.2	23.2	64	12.9	0	3	90	0.00	30.597 
23:05	23.2	23.2	23.2	64	12.9	0	1	90	0.00	30.597 
23:10	23.0	23.0	23.0	65	13.0	1	4	90	0.00	30.597 
23:15	22.9	22.9	22.9	65	12.9	1	5	90	0.00	30.600 
23:20	22.9	22.9	22.9	65	12.9	1	4	112	0.00	30.600 
23:25	22.9	22.9	22.9	65	12.9	1	3	112	0.00	30.600 
23:30	22.7	22.7	22.7	66	13.1	0	2	68	0.00	30.595 
23:35	22.5	22.5	22.5	66	12.9	0	2	68	0.00	30.595 
23:40	22.5	22.5	22.5	66	12.9	0	3	68	0.00	30.595 
23:45	22.4	22.4	22.4	66	12.8	1	5	90	0.00	30.588 
23:50	22.4	22.4	22.4	66	12.8	2	6	90	0.00	30.588 
23:55	22.4	22.4	22.4	66	12.8	1	4	90	0.00	30.588 

CoCoRaHS
IN-AL-39
A2 Web Hosting
Creative Commons License
GoDaddy
search engine by freefind advanced

loaded 2018-11-13 01:43:58 • last modified 2010-11-18 10:43:29
Privacy PolicyDisclaimer
• wx.awcolley.com is powered by PmWiki v.2002016 •
• all content (unless otherwise noted) © 2018 A W Colley